sensor_id;sensor_type;location;lat;lon;timestamp;temperature;humidity
12013;DHT22;6065;48.138;16.402;2023-03-03T00:02:12;2.90;99.90
12013;DHT22;6065;48.138;16.402;2023-03-03T00:04:39;2.80;99.90
12013;DHT22;6065;48.138;16.402;2023-03-03T00:07:05;2.80;99.90
12013;DHT22;6065;48.138;16.402;2023-03-03T00:09:33;2.80;99.90
12013;DHT22;6065;48.138;16.402;2023-03-03T00:12:00;2.80;99.90
12013;DHT22;6065;48.138;16.402;2023-03-03T00:14:28;2.90;99.90
12013;DHT22;6065;48.138;16.402;2023-03-03T00:16:56;2.90;99.90
12013;DHT22;6065;48.138;16.402;2023-03-03T00:19:23;3.00;99.90
12013;DHT22;6065;48.138;16.402;2023-03-03T00:21:50;2.90;99.90
12013;DHT22;6065;48.138;16.402;2023-03-03T00:24:18;2.90;99.90
12013;DHT22;6065;48.138;16.402;2023-03-03T00:26:47;2.90;99.90
12013;DHT22;6065;48.138;16.402;2023-03-03T00:29:26;2.90;99.90
12013;DHT22;6065;48.138;16.402;2023-03-03T00:31:53;2.80;99.90
12013;DHT22;6065;48.138;16.402;2023-03-03T00:34:23;2.80;99.90
12013;DHT22;6065;48.138;16.402;2023-03-03T00:36:50;2.70;99.90
12013;DHT22;6065;48.138;16.402;2023-03-03T00:39:21;2.70;99.90
12013;DHT22;6065;48.138;16.402;2023-03-03T00:41:51;2.70;99.90
12013;DHT22;6065;48.138;16.402;2023-03-03T00:47:16;2.60;99.90
12013;DHT22;6065;48.138;16.402;2023-03-03T00:49:48;2.60;99.90
12013;DHT22;6065;48.138;16.402;2023-03-03T00:52:16;2.60;99.90
12013;DHT22;6065;48.138;16.402;2023-03-03T00:54:42;2.60;99.90
12013;DHT22;6065;48.138;16.402;2023-03-03T00:57:11;2.60;99.90
12013;DHT22;6065;48.138;16.402;2023-03-03T00:59:38;2.50;99.90
12013;DHT22;6065;48.138;16.402;2023-03-03T01:02:05;2.50;99.90
12013;DHT22;6065;48.138;16.402;2023-03-03T01:04:31;2.50;99.90
12013;DHT22;6065;48.138;16.402;2023-03-03T01:06:58;2.50;99.90
12013;DHT22;6065;48.138;16.402;2023-03-03T01:09:25;2.40;99.90
12013;DHT22;6065;48.138;16.402;2023-03-03T01:11:51;2.40;99.90
12013;DHT22;6065;48.138;16.402;2023-03-03T01:14:20;2.40;99.90
12013;DHT22;6065;48.138;16.402;2023-03-03T01:16:46;2.30;99.90
12013;DHT22;6065;48.138;16.402;2023-03-03T01:19:15;2.30;99.90
12013;DHT22;6065;48.138;16.402;2023-03-03T01:21:41;2.40;99.90
12013;DHT22;6065;48.138;16.402;2023-03-03T01:24:08;2.30;99.90
12013;DHT22;6065;48.138;16.402;2023-03-03T01:26:35;2.30;99.90
12013;DHT22;6065;48.138;16.402;2023-03-03T01:29:02;2.30;99.90
12013;DHT22;6065;48.138;16.402;2023-03-03T01:31:30;2.30;99.90
12013;DHT22;6065;48.138;16.402;2023-03-03T01:33:56;2.30;99.90
12013;DHT22;6065;48.138;16.402;2023-03-03T01:36:23;2.40;99.90
12013;DHT22;6065;48.138;16.402;2023-03-03T01:38:50;2.40;99.90
12013;DHT22;6065;48.138;16.402;2023-03-03T01:41:16;2.30;99.90
12013;DHT22;6065;48.138;16.402;2023-03-03T01:43:43;2.30;99.90
12013;DHT22;6065;48.138;16.402;2023-03-03T01:48:57;2.30;99.90
12013;DHT22;6065;48.138;16.402;2023-03-03T01:51:27;2.30;99.90
12013;DHT22;6065;48.138;16.402;2023-03-03T01:53:55;2.40;99.90
12013;DHT22;6065;48.138;16.402;2023-03-03T01:56:23;2.40;99.90
12013;DHT22;6065;48.138;16.402;2023-03-03T01:58:50;2.40;99.90
12013;DHT22;6065;48.138;16.402;2023-03-03T02:01:18;2.30;99.90
12013;DHT22;6065;48.138;16.402;2023-03-03T02:03:45;2.30;99.90
12013;DHT22;6065;48.138;16.402;2023-03-03T02:06:14;2.30;99.90
12013;DHT22;6065;48.138;16.402;2023-03-03T02:08:42;2.30;99.90
12013;DHT22;6065;48.138;16.402;2023-03-03T02:11:11;2.20;99.90
12013;DHT22;6065;48.138;16.402;2023-03-03T02:13:37;2.20;99.90
12013;DHT22;6065;48.138;16.402;2023-03-03T02:16:04;2.20;99.90
12013;DHT22;6065;48.138;16.402;2023-03-03T02:18:31;2.20;99.90
12013;DHT22;6065;48.138;16.402;2023-03-03T02:21:00;2.10;99.90
12013;DHT22;6065;48.138;16.402;2023-03-03T02:23:32;2.10;99.90
12013;DHT22;6065;48.138;16.402;2023-03-03T02:26:08;2.10;99.90
12013;DHT22;6065;48.138;16.402;2023-03-03T02:28:36;2.20;99.90
12013;DHT22;6065;48.138;16.402;2023-03-03T02:31:04;2.10;99.90
12013;DHT22;6065;48.138;16.402;2023-03-03T02:33:31;2.10;99.90
12013;DHT22;6065;48.138;16.402;2023-03-03T02:35:58;2.20;99.90
12013;DHT22;6065;48.138;16.402;2023-03-03T02:38:26;2.20;99.90
12013;DHT22;6065;48.138;16.402;2023-03-03T02:40:58;2.20;99.90
12013;DHT22;6065;48.138;16.402;2023-03-03T02:43:27;2.20;99.90
12013;DHT22;6065;48.138;16.402;2023-03-03T02:45:57;2.10;99.90
12013;DHT22;6065;48.138;16.402;2023-03-03T02:48:24;2.20;99.90
12013;DHT22;6065;48.138;16.402;2023-03-03T02:50:51;2.20;99.90
12013;DHT22;6065;48.138;16.402;2023-03-03T02:53:17;2.20;99.90
12013;DHT22;6065;48.138;16.402;2023-03-03T02:55:44;2.20;99.90
12013;DHT22;6065;48.138;16.402;2023-03-03T02:58:10;2.20;99.90
12013;DHT22;6065;48.138;16.402;2023-03-03T03:00:39;2.20;99.90
12013;DHT22;6065;48.138;16.402;2023-03-03T03:03:05;2.20;99.90
12013;DHT22;6065;48.138;16.402;2023-03-03T03:05:32;2.20;99.90
12013;DHT22;6065;48.138;16.402;2023-03-03T03:07:59;2.20;99.90
12013;DHT22;6065;48.138;16.402;2023-03-03T03:10:25;2.20;99.90
12013;DHT22;6065;48.138;16.402;2023-03-03T03:12:52;2.20;99.90
12013;DHT22;6065;48.138;16.402;2023-03-03T03:15:19;2.20;99.90
12013;DHT22;6065;48.138;16.402;2023-03-03T03:17:47;2.20;99.90
12013;DHT22;6065;48.138;16.402;2023-03-03T03:20:14;2.20;99.90
12013;DHT22;6065;48.138;16.402;2023-03-03T03:22:41;2.20;99.90
12013;DHT22;6065;48.138;16.402;2023-03-03T03:25:08;2.20;99.90
12013;DHT22;6065;48.138;16.402;2023-03-03T03:27:35;2.20;99.90
12013;DHT22;6065;48.138;16.402;2023-03-03T03:30:01;2.30;99.90
12013;DHT22;6065;48.138;16.402;2023-03-03T03:32:28;2.20;99.90
12013;DHT22;6065;48.138;16.402;2023-03-03T03:34:56;2.20;99.90
12013;DHT22;6065;48.138;16.402;2023-03-03T03:37:23;2.30;99.90
12013;DHT22;6065;48.138;16.402;2023-03-03T03:39:50;2.30;99.90
12013;DHT22;6065;48.138;16.402;2023-03-03T03:42:16;2.30;99.90
12013;DHT22;6065;48.138;16.402;2023-03-03T03:44:43;2.30;99.90
12013;DHT22;6065;48.138;16.402;2023-03-03T03:47:10;2.30;99.90
12013;DHT22;6065;48.138;16.402;2023-03-03T03:49:37;2.30;99.90
12013;DHT22;6065;48.138;16.402;2023-03-03T03:52:05;2.20;99.90
12013;DHT22;6065;48.138;16.402;2023-03-03T03:54:31;2.20;99.90
12013;DHT22;6065;48.138;16.402;2023-03-03T03:56:58;2.30;99.90
12013;DHT22;6065;48.138;16.402;2023-03-03T03:59:25;2.20;99.90
12013;DHT22;6065;48.138;16.402;2023-03-03T04:01:51;2.20;99.90
12013;DHT22;6065;48.138;16.402;2023-03-03T04:04:18;2.20;99.90
12013;DHT22;6065;48.138;16.402;2023-03-03T04:06:44;2.30;99.90
12013;DHT22;6065;48.138;16.402;2023-03-03T04:09:12;2.30;99.90
12013;DHT22;6065;48.138;16.402;2023-03-03T04:11:39;2.20;99.90
12013;DHT22;6065;48.138;16.402;2023-03-03T04:14:06;2.20;99.90
12013;DHT22;6065;48.138;16.402;2023-03-03T04:16:33;2.10;99.90
12013;DHT22;6065;48.138;16.402;2023-03-03T04:18:59;2.10;99.90
12013;DHT22;6065;48.138;16.402;2023-03-03T04:21:26;2.10;99.90
12013;DHT22;6065;48.138;16.402;2023-03-03T04:23:53;2.10;99.90
12013;DHT22;6065;48.138;16.402;2023-03-03T04:26:21;2.10;99.90
12013;DHT22;6065;48.138;16.402;2023-03-03T04:28:48;2.10;99.90
12013;DHT22;6065;48.138;16.402;2023-03-03T04:31:14;2.10;99.90
12013;DHT22;6065;48.138;16.402;2023-03-03T04:33:41;2.10;99.90
12013;DHT22;6065;48.138;16.402;2023-03-03T04:36:10;2.10;99.90
12013;DHT22;6065;48.138;16.402;2023-03-03T04:38:37;2.10;99.90
12013;DHT22;6065;48.138;16.402;2023-03-03T04:41:04;2.10;99.90
12013;DHT22;6065;48.138;16.402;2023-03-03T04:43:32;2.10;99.90
12013;DHT22;6065;48.138;16.402;2023-03-03T04:45:59;2.00;99.90
12013;DHT22;6065;48.138;16.402;2023-03-03T04:48:25;2.00;99.90
12013;DHT22;6065;48.138;16.402;2023-03-03T04:50:52;2.00;99.90
12013;DHT22;6065;48.138;16.402;2023-03-03T04:53:19;2.00;99.90
12013;DHT22;6065;48.138;16.402;2023-03-03T04:55:45;1.90;99.90
12013;DHT22;6065;48.138;16.402;2023-03-03T04:58:12;1.90;99.90
12013;DHT22;6065;48.138;16.402;2023-03-03T05:00:41;1.90;99.90
12013;DHT22;6065;48.138;16.402;2023-03-03T05:03:09;1.90;99.90
12013;DHT22;6065;48.138;16.402;2023-03-03T05:05:36;1.80;99.90
12013;DHT22;6065;48.138;16.402;2023-03-03T05:08:03;1.80;99.90
12013;DHT22;6065;48.138;16.402;2023-03-03T05:10:29;1.70;99.90
12013;DHT22;6065;48.138;16.402;2023-03-03T05:12:56;1.70;99.90
12013;DHT22;6065;48.138;16.402;2023-03-03T05:15:23;1.80;99.90
12013;DHT22;6065;48.138;16.402;2023-03-03T05:17:51;1.80;99.90
12013;DHT22;6065;48.138;16.402;2023-03-03T05:20:18;1.70;99.90
12013;DHT22;6065;48.138;16.402;2023-03-03T05:22:44;1.70;99.90
12013;DHT22;6065;48.138;16.402;2023-03-03T05:25:11;1.70;99.90
12013;DHT22;6065;48.138;16.402;2023-03-03T05:27:38;1.70;99.90
12013;DHT22;6065;48.138;16.402;2023-03-03T05:30:05;1.80;99.90
12013;DHT22;6065;48.138;16.402;2023-03-03T05:32:31;1.80;99.90
12013;DHT22;6065;48.138;16.402;2023-03-03T05:34:59;1.80;99.90
12013;DHT22;6065;48.138;16.402;2023-03-03T05:37:26;1.70;99.90
12013;DHT22;6065;48.138;16.402;2023-03-03T05:39:53;1.70;99.90
12013;DHT22;6065;48.138;16.402;2023-03-03T05:42:19;1.60;99.90
12013;DHT22;6065;48.138;16.402;2023-03-03T05:44:46;1.60;99.90
12013;DHT22;6065;48.138;16.402;2023-03-03T05:47:13;1.60;99.90
12013;DHT22;6065;48.138;16.402;2023-03-03T05:49:39;1.60;99.90
12013;DHT22;6065;48.138;16.402;2023-03-03T05:52:07;1.60;99.90
12013;DHT22;6065;48.138;16.402;2023-03-03T05:54:34;1.60;99.90
12013;DHT22;6065;48.138;16.402;2023-03-03T05:57:01;1.60;99.90
12013;DHT22;6065;48.138;16.402;2023-03-03T05:59:27;1.60;99.90
12013;DHT22;6065;48.138;16.402;2023-03-03T06:01:54;1.70;99.90
12013;DHT22;6065;48.138;16.402;2023-03-03T06:04:21;1.70;99.90
12013;DHT22;6065;48.138;16.402;2023-03-03T06:06:47;1.70;99.90
12013;DHT22;6065;48.138;16.402;2023-03-03T06:09:15;1.70;99.90
12013;DHT22;6065;48.138;16.402;2023-03-03T06:11:43;1.70;99.90
12013;DHT22;6065;48.138;16.402;2023-03-03T06:14:10;1.70;99.90
12013;DHT22;6065;48.138;16.402;2023-03-03T06:16:36;1.70;99.90
12013;DHT22;6065;48.138;16.402;2023-03-03T06:19:03;1.80;99.90
12013;DHT22;6065;48.138;16.402;2023-03-03T06:21:30;1.80;99.90
12013;DHT22;6065;48.138;16.402;2023-03-03T06:23:57;1.90;99.90
12013;DHT22;6065;48.138;16.402;2023-03-03T06:26:25;2.00;99.90
12013;DHT22;6065;48.138;16.402;2023-03-03T06:28:51;2.00;99.90
12013;DHT22;6065;48.138;16.402;2023-03-03T06:31:19;2.10;99.90
12013;DHT22;6065;48.138;16.402;2023-03-03T06:33:46;2.20;99.90
12013;DHT22;6065;48.138;16.402;2023-03-03T06:36:13;2.30;99.90
12013;DHT22;6065;48.138;16.402;2023-03-03T06:38:39;2.30;99.90
12013;DHT22;6065;48.138;16.402;2023-03-03T06:41:06;2.40;99.90
12013;DHT22;6065;48.138;16.402;2023-03-03T06:43:34;2.50;99.90
12013;DHT22;6065;48.138;16.402;2023-03-03T06:46:01;2.60;99.90
12013;DHT22;6065;48.138;16.402;2023-03-03T06:48:28;2.60;99.90
12013;DHT22;6065;48.138;16.402;2023-03-03T06:50:55;2.70;99.90
12013;DHT22;6065;48.138;16.402;2023-03-03T06:53:21;2.70;99.90
12013;DHT22;6065;48.138;16.402;2023-03-03T06:55:48;2.80;99.90
12013;DHT22;6065;48.138;16.402;2023-03-03T06:58:15;2.80;99.90
12013;DHT22;6065;48.138;16.402;2023-03-03T07:00:44;2.90;99.90
12013;DHT22;6065;48.138;16.402;2023-03-03T07:03:13;2.90;99.90
12013;DHT22;6065;48.138;16.402;2023-03-03T07:05:40;3.00;99.90
12013;DHT22;6065;48.138;16.402;2023-03-03T07:08:09;3.10;99.90
12013;DHT22;6065;48.138;16.402;2023-03-03T07:10:38;3.20;99.90
12013;DHT22;6065;48.138;16.402;2023-03-03T07:13:11;3.30;99.90
12013;DHT22;6065;48.138;16.402;2023-03-03T07:15:43;3.30;99.90
12013;DHT22;6065;48.138;16.402;2023-03-03T07:18:20;3.40;99.90
12013;DHT22;6065;48.138;16.402;2023-03-03T07:20:47;3.40;99.90
12013;DHT22;6065;48.138;16.402;2023-03-03T07:23:17;3.40;99.90
12013;DHT22;6065;48.138;16.402;2023-03-03T07:25:44;3.50;99.90
12013;DHT22;6065;48.138;16.402;2023-03-03T07:28:13;3.50;99.90
12013;DHT22;6065;48.138;16.402;2023-03-03T07:30:42;3.50;99.90
12013;DHT22;6065;48.138;16.402;2023-03-03T07:33:13;3.60;99.90
12013;DHT22;6065;48.138;16.402;2023-03-03T07:35:44;3.60;99.90
12013;DHT22;6065;48.138;16.402;2023-03-03T07:38:22;3.70;99.90
12013;DHT22;6065;48.138;16.402;2023-03-03T07:40:50;3.70;99.90
12013;DHT22;6065;48.138;16.402;2023-03-03T07:43:30;3.80;99.90
12013;DHT22;6065;48.138;16.402;2023-03-03T07:46:00;3.90;99.90
12013;DHT22;6065;48.138;16.402;2023-03-03T07:48:30;4.00;99.90
12013;DHT22;6065;48.138;16.402;2023-03-03T07:51:02;4.00;99.90
12013;DHT22;6065;48.138;16.402;2023-03-03T07:53:30;4.00;99.90
12013;DHT22;6065;48.138;16.402;2023-03-03T07:55:59;4.10;99.90
12013;DHT22;6065;48.138;16.402;2023-03-03T07:58:26;4.10;99.90
12013;DHT22;6065;48.138;16.402;2023-03-03T08:03:41;4.30;99.90
12013;DHT22;6065;48.138;16.402;2023-03-03T08:06:10;4.30;99.90
12013;DHT22;6065;48.138;16.402;2023-03-03T08:08:49;4.40;99.90
12013;DHT22;6065;48.138;16.402;2023-03-03T08:11:16;4.40;99.90
12013;DHT22;6065;48.138;16.402;2023-03-03T08:13:42;4.50;99.90
12013;DHT22;6065;48.138;16.402;2023-03-03T08:16:29;4.50;99.90
12013;DHT22;6065;48.138;16.402;2023-03-03T08:19:02;4.50;99.90
12013;DHT22;6065;48.138;16.402;2023-03-03T08:21:30;4.60;99.90
12013;DHT22;6065;48.138;16.402;2023-03-03T08:23:57;4.60;99.90
12013;DHT22;6065;48.138;16.402;2023-03-03T08:26:24;4.60;99.90
12013;DHT22;6065;48.138;16.402;2023-03-03T08:28:51;4.70;99.90
12013;DHT22;6065;48.138;16.402;2023-03-03T08:31:18;4.70;99.90
12013;DHT22;6065;48.138;16.402;2023-03-03T08:33:45;4.80;99.90
12013;DHT22;6065;48.138;16.402;2023-03-03T08:36:13;4.80;99.90
12013;DHT22;6065;48.138;16.402;2023-03-03T08:38:40;4.90;99.90
12013;DHT22;6065;48.138;16.402;2023-03-03T08:41:06;5.00;99.90
12013;DHT22;6065;48.138;16.402;2023-03-03T08:43:33;5.00;99.90
12013;DHT22;6065;48.138;16.402;2023-03-03T08:46:00;5.10;99.90
12013;DHT22;6065;48.138;16.402;2023-03-03T08:48:28;5.20;99.90
12013;DHT22;6065;48.138;16.402;2023-03-03T08:50:55;5.20;99.90
12013;DHT22;6065;48.138;16.402;2023-03-03T08:53:23;5.30;99.90
12013;DHT22;6065;48.138;16.402;2023-03-03T08:55:50;5.40;99.90
12013;DHT22;6065;48.138;16.402;2023-03-03T08:58:17;5.40;99.90
12013;DHT22;6065;48.138;16.402;2023-03-03T09:00:44;5.50;99.90
12013;DHT22;6065;48.138;16.402;2023-03-03T09:03:11;5.60;99.90
12013;DHT22;6065;48.138;16.402;2023-03-03T09:05:38;5.60;99.90
12013;DHT22;6065;48.138;16.402;2023-03-03T09:08:05;5.70;99.90
12013;DHT22;6065;48.138;16.402;2023-03-03T09:10:33;5.70;99.90
12013;DHT22;6065;48.138;16.402;2023-03-03T09:13:01;5.80;99.90
12013;DHT22;6065;48.138;16.402;2023-03-03T09:15:30;5.80;99.90
12013;DHT22;6065;48.138;16.402;2023-03-03T09:17:58;5.90;99.90
12013;DHT22;6065;48.138;16.402;2023-03-03T09:20:35;6.00;99.90
12013;DHT22;6065;48.138;16.402;2023-03-03T09:26:14;6.10;99.90
12013;DHT22;6065;48.138;16.402;2023-03-03T09:28:43;6.20;99.90
12013;DHT22;6065;48.138;16.402;2023-03-03T09:31:16;6.30;99.90
12013;DHT22;6065;48.138;16.402;2023-03-03T09:33:47;6.30;99.90
12013;DHT22;6065;48.138;16.402;2023-03-03T09:36:18;6.40;99.90
12013;DHT22;6065;48.138;16.402;2023-03-03T09:38:46;6.50;99.90
12013;DHT22;6065;48.138;16.402;2023-03-03T09:44:09;6.60;99.90
12013;DHT22;6065;48.138;16.402;2023-03-03T09:46:43;6.60;99.90
12013;DHT22;6065;48.138;16.402;2023-03-03T09:49:16;6.70;99.90
12013;DHT22;6065;48.138;16.402;2023-03-03T09:51:51;6.80;99.90
12013;DHT22;6065;48.138;16.402;2023-03-03T09:54:27;6.80;99.90
12013;DHT22;6065;48.138;16.402;2023-03-03T09:56:58;6.90;99.90
12013;DHT22;6065;48.138;16.402;2023-03-03T09:59:32;7.00;99.90
12013;DHT22;6065;48.138;16.402;2023-03-03T10:02:08;7.00;99.90
12013;DHT22;6065;48.138;16.402;2023-03-03T10:04:43;7.20;99.90
12013;DHT22;6065;48.138;16.402;2023-03-03T10:07:18;7.30;99.40
12013;DHT22;6065;48.138;16.402;2023-03-03T10:09:51;7.30;99.30
12013;DHT22;6065;48.138;16.402;2023-03-03T10:12:23;7.40;99.40
12013;DHT22;6065;48.138;16.402;2023-03-03T10:15:00;7.50;99.20
12013;DHT22;6065;48.138;16.402;2023-03-03T10:17:34;7.50;99.20
12013;DHT22;6065;48.138;16.402;2023-03-03T10:20:10;7.50;99.20
12013;DHT22;6065;48.138;16.402;2023-03-03T10:22:39;7.60;99.60
12013;DHT22;6065;48.138;16.402;2023-03-03T10:25:14;7.70;99.10
12013;DHT22;6065;48.138;16.402;2023-03-03T10:30:27;7.80;99.10
12013;DHT22;6065;48.138;16.402;2023-03-03T10:32:58;7.80;99.00
12013;DHT22;6065;48.138;16.402;2023-03-03T10:35:34;7.90;99.00
12013;DHT22;6065;48.138;16.402;2023-03-03T10:38:10;7.90;98.90
12013;DHT22;6065;48.138;16.402;2023-03-03T10:40:39;8.00;98.90
12013;DHT22;6065;48.138;16.402;2023-03-03T10:45:55;8.20;98.40
12013;DHT22;6065;48.138;16.402;2023-03-03T10:48:29;8.30;98.10
12013;DHT22;6065;48.138;16.402;2023-03-03T10:51:02;8.40;98.50
12013;DHT22;6065;48.138;16.402;2023-03-03T10:53:33;8.40;98.00
12013;DHT22;6065;48.138;16.402;2023-03-03T10:56:10;8.50;97.50
12013;DHT22;6065;48.138;16.402;2023-03-03T10:58:42;8.50;97.40
12013;DHT22;6065;48.138;16.402;2023-03-03T11:01:13;8.60;97.10
12013;DHT22;6065;48.138;16.402;2023-03-03T11:03:47;8.70;97.40
12013;DHT22;6065;48.138;16.402;2023-03-03T11:06:17;8.80;97.30
12013;DHT22;6065;48.138;16.402;2023-03-03T11:08:48;8.90;97.10
12013;DHT22;6065;48.138;16.402;2023-03-03T11:11:18;9.00;97.10
12013;DHT22;6065;48.138;16.402;2023-03-03T11:13:47;9.10;97.00
12013;DHT22;6065;48.138;16.402;2023-03-03T11:16:24;9.20;96.90
12013;DHT22;6065;48.138;16.402;2023-03-03T11:19:01;9.20;96.80
12013;DHT22;6065;48.138;16.402;2023-03-03T11:21:31;9.30;96.60
12013;DHT22;6065;48.138;16.402;2023-03-03T11:24:01;9.40;96.20
12013;DHT22;6065;48.138;16.402;2023-03-03T11:26:37;9.40;96.10
12013;DHT22;6065;48.138;16.402;2023-03-03T11:29:10;9.50;96.20
12013;DHT22;6065;48.138;16.402;2023-03-03T11:31:42;9.60;96.10
12013;DHT22;6065;48.138;16.402;2023-03-03T11:34:13;9.70;95.80
12013;DHT22;6065;48.138;16.402;2023-03-03T11:36:44;9.70;95.70
12013;DHT22;6065;48.138;16.402;2023-03-03T11:39:15;9.70;95.40
12013;DHT22;6065;48.138;16.402;2023-03-03T11:41:45;9.80;95.30
12013;DHT22;6065;48.138;16.402;2023-03-03T11:44:19;9.90;95.10
12013;DHT22;6065;48.138;16.402;2023-03-03T11:46:49;10.00;94.60
12013;DHT22;6065;48.138;16.402;2023-03-03T11:49:19;10.10;94.20
12013;DHT22;6065;48.138;16.402;2023-03-03T11:51:49;10.10;94.20
12013;DHT22;6065;48.138;16.402;2023-03-03T11:54:21;10.10;93.90
12013;DHT22;6065;48.138;16.402;2023-03-03T11:56:49;10.20;94.30
12013;DHT22;6065;48.138;16.402;2023-03-03T11:59:24;10.20;94.30
12013;DHT22;6065;48.138;16.402;2023-03-03T12:01:58;10.20;94.40
12013;DHT22;6065;48.138;16.402;2023-03-03T12:04:30;10.20;94.60
12013;DHT22;6065;48.138;16.402;2023-03-03T12:07:02;10.30;94.80
12013;DHT22;6065;48.138;16.402;2023-03-03T12:09:36;10.30;95.50
12013;DHT22;6065;48.138;16.402;2023-03-03T12:12:05;10.30;94.50
12013;DHT22;6065;48.138;16.402;2023-03-03T12:14:39;10.30;94.40
12013;DHT22;6065;48.138;16.402;2023-03-03T12:17:15;10.40;94.30
12013;DHT22;6065;48.138;16.402;2023-03-03T12:19:47;10.40;94.30
12013;DHT22;6065;48.138;16.402;2023-03-03T12:22:20;10.50;94.30
12013;DHT22;6065;48.138;16.402;2023-03-03T12:27:51;10.50;94.40
12013;DHT22;6065;48.138;16.402;2023-03-03T12:30:25;10.60;93.90
12013;DHT22;6065;48.138;16.402;2023-03-03T12:33:06;10.50;93.60
12013;DHT22;6065;48.138;16.402;2023-03-03T12:35:35;10.50;93.40
12013;DHT22;6065;48.138;16.402;2023-03-03T12:38:06;10.50;92.60
12013;DHT22;6065;48.138;16.402;2023-03-03T12:40:35;10.50;92.90
12013;DHT22;6065;48.138;16.402;2023-03-03T12:43:10;10.50;93.50
12013;DHT22;6065;48.138;16.402;2023-03-03T12:45:41;10.50;93.50
12013;DHT22;6065;48.138;16.402;2023-03-03T12:48:14;10.50;93.50
12013;DHT22;6065;48.138;16.402;2023-03-03T12:50:43;10.40;93.00
12013;DHT22;6065;48.138;16.402;2023-03-03T12:53:18;10.40;92.80
12013;DHT22;6065;48.138;16.402;2023-03-03T12:55:49;10.40;92.90
12013;DHT22;6065;48.138;16.402;2023-03-03T12:58:20;10.40;93.00
12013;DHT22;6065;48.138;16.402;2023-03-03T13:00:51;10.40;92.70
12013;DHT22;6065;48.138;16.402;2023-03-03T13:03:25;10.30;92.20
12013;DHT22;6065;48.138;16.402;2023-03-03T13:05:58;10.30;92.30
12013;DHT22;6065;48.138;16.402;2023-03-03T13:08:35;10.30;92.40
12013;DHT22;6065;48.138;16.402;2023-03-03T13:11:07;10.20;92.40
12013;DHT22;6065;48.138;16.402;2023-03-03T13:13:40;10.20;92.40
12013;DHT22;6065;48.138;16.402;2023-03-03T13:16:09;10.20;92.60
12013;DHT22;6065;48.138;16.402;2023-03-03T13:18:41;10.20;92.70
12013;DHT22;6065;48.138;16.402;2023-03-03T13:21:14;10.20;92.80
12013;DHT22;6065;48.138;16.402;2023-03-03T13:23:44;10.20;92.90
12013;DHT22;6065;48.138;16.402;2023-03-03T13:26:16;10.20;92.80
12013;DHT22;6065;48.138;16.402;2023-03-03T13:28:49;10.20;92.70
12013;DHT22;6065;48.138;16.402;2023-03-03T13:31:21;10.20;92.80
12013;DHT22;6065;48.138;16.402;2023-03-03T13:33:50;10.20;92.90
12013;DHT22;6065;48.138;16.402;2023-03-03T13:36:18;10.20;92.90
12013;DHT22;6065;48.138;16.402;2023-03-03T13:38:46;10.20;93.10
12013;DHT22;6065;48.138;16.402;2023-03-03T13:41:15;10.20;92.90
12013;DHT22;6065;48.138;16.402;2023-03-03T13:43:44;10.20;93.20
12013;DHT22;6065;48.138;16.402;2023-03-03T13:46:13;10.20;93.20
12013;DHT22;6065;48.138;16.402;2023-03-03T13:48:43;10.30;93.80
12013;DHT22;6065;48.138;16.402;2023-03-03T13:51:16;10.40;93.70
12013;DHT22;6065;48.138;16.402;2023-03-03T13:53:46;10.40;93.70
12013;DHT22;6065;48.138;16.402;2023-03-03T13:56:30;10.40;93.60
12013;DHT22;6065;48.138;16.402;2023-03-03T13:59:01;10.50;93.60
12013;DHT22;6065;48.138;16.402;2023-03-03T14:01:37;10.50;93.60
12013;DHT22;6065;48.138;16.402;2023-03-03T14:04:09;10.50;93.60
12013;DHT22;6065;48.138;16.402;2023-03-03T14:06:40;10.60;93.60
12013;DHT22;6065;48.138;16.402;2023-03-03T14:09:21;10.60;93.70
12013;DHT22;6065;48.138;16.402;2023-03-03T14:11:56;10.60;93.90
12013;DHT22;6065;48.138;16.402;2023-03-03T14:14:29;10.60;93.70
12013;DHT22;6065;48.138;16.402;2023-03-03T14:17:00;10.60;93.40
12013;DHT22;6065;48.138;16.402;2023-03-03T14:19:28;10.50;93.60
12013;DHT22;6065;48.138;16.402;2023-03-03T14:22:03;10.60;93.70
12013;DHT22;6065;48.138;16.402;2023-03-03T14:24:31;10.60;93.70
12013;DHT22;6065;48.138;16.402;2023-03-03T14:27:20;10.60;93.70
12013;DHT22;6065;48.138;16.402;2023-03-03T14:29:48;10.60;93.20
12013;DHT22;6065;48.138;16.402;2023-03-03T14:32:22;10.60;93.00
12013;DHT22;6065;48.138;16.402;2023-03-03T14:34:55;10.60;93.10
12013;DHT22;6065;48.138;16.402;2023-03-03T14:37:24;10.60;93.20
12013;DHT22;6065;48.138;16.402;2023-03-03T14:42:36;10.60;93.00
12013;DHT22;6065;48.138;16.402;2023-03-03T14:45:14;10.60;93.00
12013;DHT22;6065;48.138;16.402;2023-03-03T14:47:44;10.60;93.20
12013;DHT22;6065;48.138;16.402;2023-03-03T14:50:27;10.60;93.00
12013;DHT22;6065;48.138;16.402;2023-03-03T14:53:02;10.70;92.80
12013;DHT22;6065;48.138;16.402;2023-03-03T14:55:32;10.70;92.60
12013;DHT22;6065;48.138;16.402;2023-03-03T14:57:59;10.70;92.60
12013;DHT22;6065;48.138;16.402;2023-03-03T15:00:28;10.70;92.60
12013;DHT22;6065;48.138;16.402;2023-03-03T15:02:58;10.60;92.40
12013;DHT22;6065;48.138;16.402;2023-03-03T15:05:27;10.70;92.40
12013;DHT22;6065;48.138;16.402;2023-03-03T15:07:55;10.70;92.30
12013;DHT22;6065;48.138;16.402;2023-03-03T15:10:28;10.70;92.20
12013;DHT22;6065;48.138;16.402;2023-03-03T15:12:54;10.70;92.30
12013;DHT22;6065;48.138;16.402;2023-03-03T15:15:21;10.60;92.20
12013;DHT22;6065;48.138;16.402;2023-03-03T15:17:53;10.60;92.20
12013;DHT22;6065;48.138;16.402;2023-03-03T15:20:22;10.60;92.50
12013;DHT22;6065;48.138;16.402;2023-03-03T15:22:50;10.60;92.40
12013;DHT22;6065;48.138;16.402;2023-03-03T15:25:25;10.60;92.20
12013;DHT22;6065;48.138;16.402;2023-03-03T15:28:00;10.60;92.10
12013;DHT22;6065;48.138;16.402;2023-03-03T15:30:33;10.60;91.90
12013;DHT22;6065;48.138;16.402;2023-03-03T15:33:02;10.60;91.80
12013;DHT22;6065;48.138;16.402;2023-03-03T15:35:35;10.60;91.40
12013;DHT22;6065;48.138;16.402;2023-03-03T15:38:07;10.60;91.40
12013;DHT22;6065;48.138;16.402;2023-03-03T15:40:40;10.50;90.90
12013;DHT22;6065;48.138;16.402;2023-03-03T15:43:16;10.50;90.40
12013;DHT22;6065;48.138;16.402;2023-03-03T15:45:47;10.50;90.10
12013;DHT22;6065;48.138;16.402;2023-03-03T15:48:23;10.50;89.30
12013;DHT22;6065;48.138;16.402;2023-03-03T15:50:54;10.50;89.30
12013;DHT22;6065;48.138;16.402;2023-03-03T15:53:28;10.50;88.80
12013;DHT22;6065;48.138;16.402;2023-03-03T15:56:08;10.40;88.50
12013;DHT22;6065;48.138;16.402;2023-03-03T15:58:43;10.40;87.50
12013;DHT22;6065;48.138;16.402;2023-03-03T16:01:14;10.40;87.20
12013;DHT22;6065;48.138;16.402;2023-03-03T16:03:44;10.40;86.60
12013;DHT22;6065;48.138;16.402;2023-03-03T16:06:14;10.30;85.80
12013;DHT22;6065;48.138;16.402;2023-03-03T16:08:44;10.30;85.90
12013;DHT22;6065;48.138;16.402;2023-03-03T16:11:14;10.30;86.10
12013;DHT22;6065;48.138;16.402;2023-03-03T16:13:47;10.30;85.60
12013;DHT22;6065;48.138;16.402;2023-03-03T16:16:19;10.20;85.30
12013;DHT22;6065;48.138;16.402;2023-03-03T16:21:38;10.20;85.90
12013;DHT22;6065;48.138;16.402;2023-03-03T16:24:10;10.20;85.70
12013;DHT22;6065;48.138;16.402;2023-03-03T16:26:45;10.10;86.10